createdAt,value
2023-05-18T00:00:49.883Z,16.11
2023-05-18T00:01:49.874Z,16.02
2023-05-18T00:02:49.972Z,16.11
2023-05-18T00:03:49.965Z,16.02
2023-05-18T00:04:49.961Z,15.92
2023-05-18T00:05:49.892Z,16.02
2023-05-18T00:06:49.888Z,16.20
2023-05-18T00:07:49.898Z,15.92
2023-05-18T00:08:49.877Z,15.92
2023-05-18T00:09:49.904Z,15.91
2023-05-18T00:10:49.878Z,15.92
2023-05-18T00:11:49.872Z,15.91
2023-05-18T00:12:49.881Z,15.92
2023-05-18T00:13:49.871Z,16.01
2023-05-18T00:14:49.881Z,15.82
2023-05-18T00:15:49.921Z,15.82
2023-05-18T00:16:49.880Z,15.82
2023-05-18T00:17:49.904Z,15.82
2023-05-18T00:18:49.916Z,15.82
2023-05-18T00:19:49.880Z,15.82
2023-05-18T00:20:49.878Z,16.01
2023-05-18T00:21:49.869Z,15.82
2023-05-18T00:22:49.878Z,16.11
2023-05-18T00:23:49.900Z,15.92
2023-05-18T00:24:49.877Z,15.91
2023-05-18T00:25:49.874Z,16.11
2023-05-18T00:26:49.877Z,15.82
2023-05-18T00:27:49.897Z,16.21
2023-05-18T00:28:49.877Z,16.21
2023-05-18T00:29:49.867Z,15.91
2023-05-18T00:30:49.878Z,16.01
2023-05-18T00:31:49.908Z,16.21
2023-05-18T00:32:49.897Z,16.21
2023-05-18T00:33:49.873Z,16.31
2023-05-18T00:34:49.873Z,16.31
2023-05-18T00:35:49.872Z,16.02
2023-05-18T00:36:49.890Z,16.11
2023-05-18T00:37:49.880Z,16.02
2023-05-18T00:38:49.883Z,16.21
2023-05-18T00:39:49.928Z,16.11
2023-05-18T00:40:49.876Z,16.02
2023-05-18T00:41:49.871Z,16.11
2023-05-18T00:42:49.873Z,16.31
2023-05-18T00:43:49.896Z,16.21
2023-05-18T00:44:49.876Z,16.21
2023-05-18T00:45:49.898Z,16.31
2023-05-18T00:46:49.878Z,16.31
2023-05-18T00:47:49.888Z,16.21
2023-05-18T00:48:49.879Z,16.21
2023-05-18T00:49:49.870Z,16.31
2023-05-18T00:50:49.878Z,16.31
2023-05-18T00:51:49.886Z,16.30
2023-05-18T00:52:49.873Z,16.21
2023-05-18T00:53:49.867Z,16.41
2023-05-18T00:54:49.880Z,16.30
2023-05-18T00:55:49.892Z,16.39
2023-05-18T00:56:49.874Z,16.41
2023-05-18T00:57:49.870Z,16.31
2023-05-18T00:58:49.873Z,16.21
2023-05-18T00:59:49.887Z,16.11
2023-05-18T01:00:49.901Z,16.11
2023-05-18T01:01:49.865Z,16.11
2023-05-18T01:02:50.037Z,16.20
2023-05-18T01:03:49.864Z,16.31
2023-05-18T01:04:49.897Z,16.39
2023-05-18T01:05:49.864Z,16.31
2023-05-18T01:06:49.884Z,16.20
2023-05-18T01:07:49.864Z,16.30
2023-05-18T01:08:49.874Z,16.30
2023-05-18T01:09:49.862Z,16.20
2023-05-18T01:10:49.868Z,16.31
2023-05-18T01:11:49.889Z,16.30
2023-05-18T01:12:49.874Z,16.21
2023-05-18T01:13:49.861Z,16.20
2023-05-18T01:14:49.921Z,16.31
2023-05-18T01:15:49.863Z,16.31
2023-05-18T01:16:49.879Z,16.50
2023-05-18T01:17:49.958Z,16.31
2023-05-18T01:18:49.894Z,16.21
2023-05-18T01:19:49.859Z,16.31
2023-05-18T01:20:49.871Z,16.41
2023-05-18T01:21:49.860Z,16.30
2023-05-18T01:22:49.866Z,16.31
2023-05-18T01:23:49.859Z,16.30
2023-05-18T01:24:49.867Z,16.30
2023-05-18T01:25:49.857Z,16.50
2023-05-18T01:26:49.864Z,16.39
2023-05-18T01:27:49.888Z,16.39
2023-05-18T01:28:49.866Z,16.39
2023-05-18T01:29:49.857Z,16.41
2023-05-18T01:30:49.889Z,16.41
2023-05-18T01:31:49.856Z,16.39
2023-05-18T01:32:49.905Z,16.31
2023-05-18T01:33:49.861Z,16.30
2023-05-18T01:34:49.866Z,16.31
2023-05-18T01:35:49.858Z,16.30
2023-05-18T01:36:49.869Z,16.39
2023-05-18T01:37:49.861Z,16.41
2023-05-18T01:38:49.862Z,16.49
2023-05-18T01:39:49.854Z,16.30
2023-05-18T01:40:49.863Z,16.30
2023-05-18T01:41:49.854Z,16.69
2023-05-18T01:42:49.858Z,16.69
2023-05-18T01:43:49.943Z,16.39
2023-05-18T01:44:49.862Z,16.39
2023-05-18T01:45:49.856Z,16.39
2023-05-18T01:46:49.996Z,16.49
2023-05-18T01:47:49.878Z,16.59
2023-05-18T01:48:49.858Z,16.49
2023-05-18T01:49:49.852Z,16.59
2023-05-18T01:50:49.860Z,16.69
2023-05-18T01:51:49.850Z,16.59
2023-05-18T01:52:49.858Z,16.49
2023-05-18T01:53:49.850Z,16.49
2023-05-18T01:54:49.856Z,16.39
2023-05-18T01:55:49.852Z,16.49
2023-05-18T01:56:49.878Z,16.49
2023-05-18T01:57:49.860Z,16.49
2023-05-18T01:58:49.858Z,16.49
2023-05-18T01:59:49.888Z,16.49
2023-05-18T02:00:49.857Z,16.39
2023-05-18T02:01:49.879Z,16.59
2023-05-18T02:02:49.933Z,16.49
2023-05-18T02:03:49.897Z,16.60
2023-05-18T02:04:49.856Z,16.49
2023-05-18T02:05:49.849Z,16.59
2023-05-18T02:06:49.854Z,16.78
2023-05-18T02:07:49.867Z,16.59
2023-05-18T02:08:49.855Z,16.69
2023-05-18T02:09:49.851Z,16.69
2023-05-18T02:10:49.868Z,16.78
2023-05-18T02:11:49.850Z,16.39
2023-05-18T02:12:49.850Z,16.69
2023-05-18T02:13:49.848Z,16.69
2023-05-18T02:14:49.849Z,16.78
2023-05-18T02:15:49.906Z,16.78
2023-05-18T02:16:49.850Z,16.78
2023-05-18T02:17:49.864Z,16.78
2023-05-18T02:18:49.880Z,16.78
2023-05-18T02:19:49.836Z,16.78
2023-05-18T02:20:49.849Z,16.78
2023-05-18T02:21:49.844Z,16.78
2023-05-18T02:22:49.849Z,16.78
2023-05-18T02:23:49.837Z,16.69
2023-05-18T02:24:49.855Z,16.78
2023-05-18T02:25:49.845Z,16.79
2023-05-18T02:26:49.844Z,16.78
2023-05-18T02:27:49.839Z,16.78
2023-05-18T02:28:49.845Z,16.78
2023-05-18T02:29:49.835Z,16.78
2023-05-18T02:30:49.842Z,16.69
2023-05-18T02:31:49.884Z,16.69
2023-05-18T02:32:49.875Z,16.69
2023-05-18T02:33:49.840Z,16.69
2023-05-18T02:34:49.856Z,16.59
2023-05-18T02:35:49.832Z,16.59
2023-05-18T02:36:49.838Z,16.69
2023-05-18T02:37:49.835Z,16.69
2023-05-18T02:38:49.840Z,16.69
2023-05-18T02:39:49.831Z,16.69
2023-05-18T02:40:49.838Z,16.69
2023-05-18T02:41:49.830Z,16.59
2023-05-18T02:42:49.859Z,16.69
2023-05-18T02:43:49.831Z,16.69
2023-05-18T02:44:49.837Z,16.69
2023-05-18T02:45:49.838Z,16.59
2023-05-18T02:46:49.846Z,16.69
2023-05-18T02:47:49.907Z,16.69
2023-05-18T02:48:49.839Z,16.69
2023-05-18T02:49:49.832Z,16.69
2023-05-18T02:50:49.850Z,16.59
2023-05-18T02:51:49.834Z,16.88
2023-05-18T02:52:49.838Z,16.59
2023-05-18T02:53:49.831Z,16.88
2023-05-18T02:54:49.838Z,16.98
2023-05-18T02:55:49.831Z,16.98
2023-05-18T02:56:49.836Z,16.98
2023-05-18T02:57:49.829Z,16.98
2023-05-18T02:58:49.835Z,16.69
2023-05-18T02:59:49.841Z,17.08
2023-05-18T03:00:49.894Z,16.98
2023-05-18T03:01:49.877Z,16.88
2023-05-18T03:02:49.896Z,16.98
2023-05-18T03:03:49.855Z,17.08
2023-05-18T03:04:49.843Z,16.98
2023-05-18T03:05:49.830Z,16.88
2023-05-18T03:06:49.837Z,16.88
2023-05-18T03:07:49.833Z,16.88
2023-05-18T03:08:49.837Z,16.98
2023-05-18T03:09:49.828Z,16.88
2023-05-18T03:10:49.834Z,16.88
2023-05-18T03:11:49.831Z,16.88
2023-05-18T03:12:49.839Z,16.98
2023-05-18T03:13:49.830Z,16.88
2023-05-18T03:14:49.834Z,16.88
2023-05-18T03:15:49.829Z,17.08
2023-05-18T03:16:49.894Z,17.08
2023-05-18T03:17:49.967Z,16.88
2023-05-18T03:18:49.883Z,16.88
2023-05-18T03:19:49.847Z,16.89
2023-05-18T03:20:49.840Z,16.78
2023-05-18T03:21:49.830Z,16.98
2023-05-18T03:22:49.833Z,16.98
2023-05-18T03:23:49.825Z,16.88
2023-05-18T03:24:49.832Z,16.98
2023-05-18T03:25:49.829Z,16.88
2023-05-18T03:26:49.833Z,16.88
2023-05-18T03:27:49.827Z,16.78
2023-05-18T03:28:49.835Z,16.78
2023-05-18T03:29:49.823Z,16.78
2023-05-18T03:30:49.834Z,16.78
2023-05-18T03:31:50.099Z,16.78
2023-05-18T03:32:49.869Z,16.88
2023-05-18T03:33:49.821Z,16.88
2023-05-18T03:34:49.828Z,16.78
2023-05-18T03:35:49.889Z,16.78
2023-05-18T03:36:49.827Z,16.78
2023-05-18T03:37:49.927Z,16.78
2023-05-18T03:38:49.870Z,16.78
2023-05-18T03:39:49.863Z,16.78
2023-05-18T03:40:49.897Z,16.78
2023-05-18T03:41:49.870Z,16.78
2023-05-18T03:42:49.835Z,16.78
2023-05-18T03:43:49.867Z,16.78
2023-05-18T03:44:49.905Z,16.78
2023-05-18T03:45:49.904Z,16.59
2023-05-18T03:46:49.856Z,16.78
2023-05-18T03:47:49.896Z,16.69
2023-05-18T03:48:49.824Z,16.78
2023-05-18T03:49:49.831Z,16.78
2023-05-18T03:50:49.824Z,16.59
2023-05-18T03:51:49.848Z,16.69
2023-05-18T03:52:49.817Z,16.69
2023-05-18T03:53:49.828Z,16.79
2023-05-18T03:54:49.838Z,16.78
2023-05-18T03:55:49.822Z,16.78
2023-05-18T03:56:49.818Z,16.69
2023-05-18T03:57:49.828Z,16.78
2023-05-18T03:58:49.821Z,16.69
2023-05-18T03:59:49.825Z,16.69
2023-05-18T04:00:49.886Z,16.78
2023-05-18T04:01:49.850Z,16.69
2023-05-18T04:02:49.887Z,16.78
2023-05-18T04:03:49.946Z,16.88
2023-05-18T04:04:49.818Z,16.78
2023-05-18T04:05:49.847Z,16.78
2023-05-18T04:06:49.810Z,16.69
2023-05-18T04:07:50.002Z,16.78
2023-05-18T04:08:49.931Z,16.78
2023-05-18T04:09:49.825Z,16.59
2023-05-18T04:10:49.815Z,16.78
2023-05-18T04:11:49.825Z,16.88
2023-05-18T04:12:49.821Z,16.88
2023-05-18T04:13:49.832Z,16.78
2023-05-18T04:14:49.811Z,16.88
2023-05-18T04:15:49.822Z,16.88
2023-05-18T04:16:49.887Z,16.98
2023-05-18T04:17:49.831Z,16.59
2023-05-18T04:18:49.825Z,16.59
2023-05-18T04:19:49.816Z,16.69
2023-05-18T04:20:49.862Z,16.59
2023-05-18T04:21:49.819Z,16.69
2023-05-18T04:22:49.812Z,16.78
2023-05-18T04:23:49.846Z,16.59
2023-05-18T04:24:49.809Z,16.78
2023-05-18T04:25:49.828Z,16.78
2023-05-18T04:26:49.817Z,16.69
2023-05-18T04:27:51.482Z,16.69
2023-05-18T04:28:49.810Z,16.39
2023-05-18T04:29:49.815Z,16.78
2023-05-18T04:30:49.817Z,16.59
2023-05-18T04:31:49.884Z,16.49
2023-05-18T04:32:49.849Z,16.49
2023-05-18T04:33:49.816Z,16.49
2023-05-18T04:34:49.833Z,16.59
2023-05-18T04:35:49.813Z,16.49
2023-05-18T04:36:49.804Z,16.49
2023-05-18T04:37:49.815Z,16.49
2023-05-18T04:38:49.806Z,16.49
2023-05-18T04:39:49.837Z,16.49
2023-05-18T04:40:49.804Z,16.49
2023-05-18T04:41:49.813Z,16.49
2023-05-18T04:42:49.811Z,16.49
2023-05-18T04:43:49.812Z,16.49
2023-05-18T04:44:49.808Z,16.49
2023-05-18T04:45:49.835Z,16.49
2023-05-18T04:46:49.802Z,16.49
2023-05-18T04:47:49.824Z,16.59
2023-05-18T04:48:49.802Z,16.49
2023-05-18T04:49:49.808Z,16.69
2023-05-18T04:50:49.798Z,16.59
2023-05-18T04:51:49.810Z,16.39
2023-05-18T04:52:49.809Z,16.69
2023-05-18T04:53:49.807Z,16.78
2023-05-18T04:54:49.797Z,16.78
2023-05-18T04:55:49.892Z,16.39
2023-05-18T04:56:49.796Z,16.39
2023-05-18T04:57:49.806Z,16.78
2023-05-18T04:58:49.796Z,16.78
2023-05-18T04:59:49.803Z,16.78
2023-05-18T05:00:49.795Z,16.68
2023-05-18T05:01:49.838Z,16.69
2023-05-18T05:02:49.926Z,16.68
2023-05-18T05:03:49.840Z,16.49
2023-05-18T05:04:49.798Z,16.68
2023-05-18T05:05:49.796Z,16.69
2023-05-18T05:06:49.800Z,16.68
2023-05-18T05:07:49.798Z,16.49
2023-05-18T05:08:49.790Z,16.49
2023-05-18T05:09:49.799Z,16.78
2023-05-18T05:10:49.788Z,16.78
2023-05-18T05:11:49.817Z,16.78
2023-05-18T05:12:49.968Z,16.78
2023-05-18T05:13:49.793Z,16.69
2023-05-18T05:14:49.783Z,16.78
2023-05-18T05:15:49.869Z,16.78
2023-05-18T05:16:49.782Z,16.78
2023-05-18T05:17:49.909Z,16.78
2023-05-18T05:18:49.824Z,16.69
2023-05-18T05:19:49.786Z,16.78
2023-05-18T05:20:49.879Z,16.69
2023-05-18T05:21:49.789Z,16.69
2023-05-18T05:22:49.852Z,16.78
2023-05-18T05:23:49.786Z,16.68
2023-05-18T05:24:49.777Z,16.78
2023-05-18T05:25:49.783Z,16.78
2023-05-18T05:26:49.779Z,16.78
2023-05-18T05:27:49.813Z,16.78
2023-05-18T05:28:49.780Z,16.78
2023-05-18T05:29:49.779Z,16.68
2023-05-18T05:30:49.772Z,16.78
2023-05-18T05:31:49.884Z,16.78
2023-05-18T05:32:49.864Z,16.69
2023-05-18T05:33:49.781Z,16.78
2023-05-18T05:34:49.770Z,16.69
2023-05-18T05:35:49.785Z,16.69
2023-05-18T05:36:49.771Z,16.78
2023-05-18T05:37:49.787Z,16.78
2023-05-18T05:38:49.771Z,16.69
2023-05-18T05:39:49.784Z,16.49
2023-05-18T05:40:49.772Z,16.59
2023-05-18T05:41:49.794Z,16.69
2023-05-18T05:42:49.769Z,16.59
2023-05-18T05:43:49.840Z,16.39
2023-05-18T05:44:49.777Z,16.59
2023-05-18T05:45:49.777Z,16.49
2023-05-18T05:46:49.821Z,16.49
2023-05-18T05:47:49.817Z,16.49
2023-05-18T05:48:49.768Z,16.49
2023-05-18T05:49:49.779Z,16.49
2023-05-18T05:50:49.769Z,16.49
2023-05-18T05:51:49.774Z,16.59
2023-05-18T05:52:49.768Z,16.59
2023-05-18T05:53:49.776Z,16.59
2023-05-18T05:54:49.765Z,16.59
2023-05-18T05:55:49.776Z,16.49
2023-05-18T05:56:49.764Z,16.59
2023-05-18T05:57:49.772Z,16.49
2023-05-18T05:58:49.762Z,16.39
2023-05-18T05:59:49.804Z,16.39
2023-05-18T06:00:49.764Z,16.39
2023-05-18T06:01:49.815Z,16.30
2023-05-18T06:02:49.817Z,16.39
2023-05-18T06:03:49.834Z,16.39
2023-05-18T06:04:49.761Z,16.39
2023-05-18T06:05:49.775Z,16.39
2023-05-18T06:06:49.783Z,16.30
2023-05-18T06:07:49.769Z,16.30
2023-05-18T06:08:49.758Z,16.39
2023-05-18T06:09:49.766Z,16.39
2023-05-18T06:10:49.758Z,16.20
2023-05-18T06:11:49.766Z,16.20
2023-05-18T06:12:49.764Z,16.20
2023-05-18T06:13:49.766Z,16.30
2023-05-18T06:14:49.757Z,16.30
2023-05-18T06:15:49.794Z,16.30
2023-05-18T06:16:49.825Z,16.30
2023-05-18T06:17:49.798Z,16.20
2023-05-18T06:18:49.777Z,16.20
2023-05-18T06:19:49.758Z,16.30
2023-05-18T06:20:49.753Z,16.20
2023-05-18T06:21:49.764Z,16.20
2023-05-18T06:22:49.760Z,16.01
2023-05-18T06:23:49.760Z,16.20
2023-05-18T06:24:49.793Z,16.11
2023-05-18T06:25:49.762Z,16.20
2023-05-18T06:26:49.755Z,16.20
2023-05-18T06:27:49.760Z,16.39
2023-05-18T06:28:49.751Z,16.11
2023-05-18T06:29:49.788Z,16.11
2023-05-18T06:30:49.767Z,16.30
2023-05-18T06:31:49.797Z,16.39
2023-05-18T06:32:49.784Z,16.20
2023-05-18T06:33:49.762Z,16.11
2023-05-18T06:34:49.753Z,16.01
2023-05-18T06:35:49.761Z,16.20
2023-05-18T06:36:49.766Z,16.39
2023-05-18T06:37:49.764Z,16.11
2023-05-18T06:38:49.753Z,16.11
2023-05-18T06:39:49.773Z,16.01
2023-05-18T06:40:49.751Z,16.20
2023-05-18T06:41:49.761Z,16.20
2023-05-18T06:42:49.751Z,16.11
2023-05-18T06:43:49.791Z,16.20
2023-05-18T06:44:49.753Z,16.11
2023-05-18T06:45:49.798Z,16.20
2023-05-18T06:46:49.755Z,16.20
2023-05-18T06:47:49.825Z,16.20
2023-05-18T06:48:49.763Z,16.11
2023-05-18T06:49:49.766Z,16.11
2023-05-18T06:50:49.751Z,16.11
2023-05-18T06:51:49.757Z,16.30
2023-05-18T06:52:49.750Z,16.21
2023-05-18T06:53:49.758Z,16.30
2023-05-18T06:54:49.760Z,16.20
2023-05-18T06:55:49.757Z,16.30
2023-05-18T06:56:49.748Z,16.30
2023-05-18T06:57:49.757Z,16.30
2023-05-18T06:58:49.747Z,16.20
2023-05-18T06:59:49.755Z,16.30
2023-05-18T07:00:49.746Z,16.30
2023-05-18T07:01:49.885Z,16.30
2023-05-18T07:02:49.768Z,16.30
2023-05-18T07:03:49.867Z,16.30
2023-05-18T07:04:49.744Z,16.39
2023-05-18T07:05:49.754Z,16.30
2023-05-18T07:06:49.744Z,16.39
2023-05-18T07:07:49.809Z,16.30
2023-05-18T07:08:49.752Z,16.39
2023-05-18T07:09:49.893Z,16.30
2023-05-18T07:10:49.739Z,16.30
2023-05-18T07:11:49.750Z,16.39
2023-05-18T07:12:49.741Z,16.30
2023-05-18T07:13:49.748Z,16.30
2023-05-18T07:14:49.741Z,16.20
2023-05-18T07:15:49.792Z,16.30
2023-05-18T07:16:49.740Z,16.20
2023-05-18T07:17:49.782Z,16.30
2023-05-18T07:18:49.784Z,16.30
2023-05-18T07:19:49.788Z,16.30
2023-05-18T07:20:49.753Z,16.20
2023-05-18T07:21:49.746Z,16.20
2023-05-18T07:22:49.738Z,16.39
2023-05-18T07:23:49.746Z,16.39
2023-05-18T07:24:49.743Z,16.39
2023-05-18T07:25:49.748Z,16.39
2023-05-18T07:26:49.738Z,16.39
2023-05-18T07:27:49.745Z,16.30
2023-05-18T07:28:49.749Z,16.39
2023-05-18T07:29:49.743Z,16.39
2023-05-18T07:30:49.737Z,16.39
2023-05-18T07:31:49.784Z,16.39
2023-05-18T07:32:49.791Z,16.39
2023-05-18T07:33:49.772Z,16.30
2023-05-18T07:34:49.742Z,16.49
2023-05-18T07:35:49.769Z,16.39
2023-05-18T07:36:49.736Z,16.39
2023-05-18T07:37:49.741Z,16.30
2023-05-18T07:38:49.734Z,16.49
2023-05-18T07:39:49.741Z,16.20
2023-05-18T07:40:49.738Z,16.30
2023-05-18T07:41:49.737Z,16.59
2023-05-18T07:42:49.731Z,16.59
2023-05-18T07:43:49.739Z,16.39
2023-05-18T07:44:49.732Z,16.49
2023-05-18T07:45:49.742Z,16.39
2023-05-18T07:46:49.806Z,16.39
2023-05-18T07:47:49.785Z,16.59
2023-05-18T07:48:49.734Z,16.59
2023-05-18T07:49:49.742Z,16.49
2023-05-18T07:50:49.728Z,16.59
2023-05-18T07:51:49.770Z,16.59
2023-05-18T07:52:49.730Z,16.49
2023-05-18T07:53:49.752Z,16.59
2023-05-18T07:54:49.727Z,16.59
2023-05-18T07:55:49.733Z,16.39
2023-05-18T07:56:49.728Z,16.39
2023-05-18T07:57:49.740Z,16.49
2023-05-18T07:58:49.734Z,16.49
2023-05-18T07:59:49.727Z,16.49
2023-05-18T08:00:49.741Z,16.49
2023-05-18T08:01:49.772Z,16.49
2023-05-18T08:02:49.988Z,16.49
2023-05-18T08:03:49.830Z,16.49
2023-05-18T08:04:49.737Z,16.49
2023-05-18T08:05:49.725Z,16.59
2023-05-18T08:06:49.732Z,16.60
2023-05-18T08:07:49.749Z,16.59
2023-05-18T08:08:49.730Z,16.39
2023-05-18T08:09:49.735Z,16.49
2023-05-18T08:10:49.729Z,16.39
2023-05-18T08:11:49.724Z,16.39
2023-05-18T08:12:49.729Z,16.69
2023-05-18T08:13:49.722Z,16.78
2023-05-18T08:14:49.728Z,16.78
2023-05-18T08:15:59.285Z,16.78
2023-05-18T08:16:49.786Z,16.69
2023-05-18T08:17:49.728Z,16.78
2023-05-18T08:18:49.838Z,16.78
2023-05-18T08:19:49.716Z,16.78
2023-05-18T08:20:49.725Z,16.78
2023-05-18T08:21:49.727Z,16.78
2023-05-18T08:22:49.744Z,16.69
2023-05-18T08:23:49.749Z,16.69
2023-05-18T08:24:49.725Z,16.69
2023-05-18T08:25:49.716Z,16.69
2023-05-18T08:26:49.730Z,16.69
2023-05-18T08:27:49.716Z,16.78
2023-05-18T08:28:49.793Z,16.59
2023-05-18T08:29:49.714Z,16.69
2023-05-18T08:30:49.726Z,16.59
2023-05-18T08:31:49.928Z,16.59
2023-05-18T08:32:49.764Z,16.69
2023-05-18T08:33:49.714Z,16.69
2023-05-18T08:34:49.720Z,16.59
2023-05-18T08:35:49.723Z,16.89
2023-05-18T08:36:49.718Z,16.98
2023-05-18T08:37:49.714Z,16.98
2023-05-18T08:38:49.722Z,16.98
2023-05-18T08:39:49.743Z,16.98
2023-05-18T08:40:49.720Z,16.88
2023-05-18T08:41:49.715Z,16.98
2023-05-18T08:42:50.654Z,16.98
2023-05-18T08:43:49.717Z,17.08
2023-05-18T08:44:49.718Z,16.98
2023-05-18T08:45:49.709Z,16.88
2023-05-18T08:46:49.717Z,16.88
2023-05-18T08:47:49.852Z,16.88
2023-05-18T08:48:49.755Z,16.88
2023-05-18T08:49:49.708Z,16.88
2023-05-18T08:50:49.751Z,16.98
2023-05-18T08:51:49.710Z,16.98
2023-05-18T08:52:49.714Z,16.88
2023-05-18T08:53:49.710Z,16.78
2023-05-18T08:54:49.715Z,16.88
2023-05-18T08:55:49.736Z,16.88
2023-05-18T08:56:49.719Z,16.88
2023-05-18T08:57:49.705Z,16.88
2023-05-18T08:58:49.714Z,16.88
2023-05-18T08:59:49.707Z,16.78
2023-05-18T09:00:49.710Z,16.98
2023-05-18T09:01:49.809Z,16.78
2023-05-18T09:02:49.764Z,16.89
2023-05-18T09:03:49.700Z,16.88
2023-05-18T09:04:49.810Z,16.89
2023-05-18T09:05:49.702Z,16.88
2023-05-18T09:06:49.718Z,16.78
2023-05-18T09:07:49.704Z,16.88
2023-05-18T09:08:49.707Z,16.89
2023-05-18T09:09:49.706Z,16.88
2023-05-18T09:10:49.707Z,16.79
2023-05-18T09:11:49.728Z,16.69
2023-05-18T09:12:49.708Z,16.89
2023-05-18T09:13:49.704Z,16.78
2023-05-18T09:14:49.705Z,16.69
2023-05-18T09:15:49.716Z,16.69
2023-05-18T09:16:49.704Z,16.79
2023-05-18T09:17:49.802Z,16.79
2023-05-18T09:18:49.759Z,16.59
2023-05-18T09:19:49.697Z,16.78
2023-05-18T09:20:49.810Z,16.78
2023-05-18T09:21:49.698Z,16.78
2023-05-18T09:22:49.718Z,16.79
2023-05-18T09:23:49.700Z,16.78
2023-05-18T09:24:49.704Z,16.78
2023-05-18T09:25:49.708Z,16.78
2023-05-18T09:26:49.707Z,16.78
2023-05-18T09:27:49.733Z,16.78
2023-05-18T09:28:49.706Z,16.59
2023-05-18T09:29:49.700Z,16.59
2023-05-18T09:30:49.711Z,16.69
2023-05-18T09:31:49.762Z,16.78
2023-05-18T09:32:49.860Z,16.88
2023-05-18T09:33:49.714Z,16.78
2023-05-18T09:34:49.703Z,16.78
2023-05-18T09:35:49.694Z,16.78
2023-05-18T09:36:49.702Z,16.78
2023-05-18T09:37:49.719Z,16.69
2023-05-18T09:38:49.700Z,16.69
2023-05-18T09:39:49.694Z,16.78
2023-05-18T09:40:49.708Z,16.88
2023-05-18T09:41:49.693Z,16.78
2023-05-18T09:42:49.718Z,16.69
2023-05-18T09:43:49.717Z,16.99
2023-05-18T09:44:49.708Z,16.88
2023-05-18T09:45:49.712Z,16.99
2023-05-18T09:46:49.729Z,16.98
2023-05-18T09:47:49.712Z,16.88
2023-05-18T09:48:49.699Z,16.88
2023-05-18T09:49:49.696Z,16.88
2023-05-18T09:50:49.696Z,16.98
2023-05-18T09:51:49.690Z,16.98
2023-05-18T09:52:49.697Z,17.08
2023-05-18T09:53:49.692Z,17.08
2023-05-18T09:54:49.698Z,16.98
2023-05-18T09:55:49.703Z,16.88
2023-05-18T09:56:58.677Z,16.89
2023-05-18T09:57:49.738Z,17.18
2023-05-18T09:58:49.704Z,17.08
2023-05-18T09:59:49.712Z,16.99
2023-05-18T10:00:49.723Z,17.08
2023-05-18T10:01:49.689Z,17.18
2023-05-18T10:02:49.751Z,17.18
2023-05-18T10:03:49.931Z,17.18
2023-05-18T10:04:49.724Z,17.18
2023-05-18T10:05:49.698Z,17.18
2023-05-18T10:06:49.693Z,17.08
2023-05-18T10:07:49.740Z,16.99
2023-05-18T10:08:49.696Z,17.18
2023-05-18T10:09:49.689Z,17.08
2023-05-18T10:10:49.716Z,17.18
2023-05-18T10:11:49.687Z,17.18
2023-05-18T10:12:49.696Z,17.18
2023-05-18T10:13:49.691Z,17.18
2023-05-18T10:14:49.696Z,17.18
2023-05-18T10:15:49.729Z,17.27
2023-05-18T10:16:51.651Z,17.27
2023-05-18T10:17:49.777Z,17.18
2023-05-18T10:18:49.730Z,17.08
2023-05-18T10:19:49.690Z,17.18
2023-05-18T10:20:49.692Z,17.18
2023-05-18T10:21:49.686Z,17.18
2023-05-18T10:22:49.725Z,17.18
2023-05-18T10:23:49.685Z,17.08
2023-05-18T10:24:49.691Z,17.18
2023-05-18T10:25:49.694Z,17.18
2023-05-18T10:26:51.991Z,17.08
2023-05-18T10:27:49.685Z,17.08
2023-05-18T10:28:49.689Z,17.08
2023-05-18T10:29:49.682Z,17.08
2023-05-18T10:30:49.724Z,17.08
2023-05-18T10:31:49.709Z,17.18
2023-05-18T10:32:49.712Z,16.98
2023-05-18T10:33:49.686Z,17.08
2023-05-18T10:34:49.697Z,17.27
2023-05-18T10:35:49.680Z,16.98
2023-05-18T10:36:49.687Z,17.27
2023-05-18T10:37:49.682Z,17.27
2023-05-18T10:38:49.687Z,17.27
2023-05-18T10:39:49.680Z,17.27
2023-05-18T10:40:49.685Z,17.18
2023-05-18T10:41:49.696Z,17.18
2023-05-18T10:42:49.689Z,17.27
2023-05-18T10:43:49.676Z,17.18
2023-05-18T10:44:49.685Z,17.18
2023-05-18T10:45:49.712Z,17.36
2023-05-18T10:46:49.730Z,17.18
2023-05-18T10:47:49.803Z,17.36
2023-05-18T10:48:49.698Z,17.38
2023-05-18T10:49:49.687Z,17.27
2023-05-18T10:50:49.685Z,17.28
2023-05-18T10:51:49.678Z,17.27
2023-05-18T10:52:49.685Z,17.36
2023-05-18T10:53:49.678Z,17.27
2023-05-18T10:54:49.680Z,17.18
2023-05-18T10:55:49.674Z,17.18
2023-05-18T10:56:49.691Z,17.18
2023-05-18T10:57:49.681Z,17.08
2023-05-18T10:58:49.683Z,17.36
2023-05-18T10:59:49.674Z,17.08
2023-05-18T11:00:49.678Z,17.18
2023-05-18T11:01:49.876Z,17.27
2023-05-18T11:02:49.693Z,17.56
2023-05-18T11:03:49.703Z,17.56
2023-05-18T11:04:51.818Z,17.46
2023-05-18T11:05:49.683Z,17.27
2023-05-18T11:06:49.680Z,17.36
2023-05-18T11:07:49.674Z,17.27
2023-05-18T11:08:49.713Z,17.27
2023-05-18T11:09:49.673Z,17.36
2023-05-18T11:10:49.682Z,17.27
2023-05-18T11:11:49.668Z,17.46
2023-05-18T11:12:49.696Z,17.36
2023-05-18T11:13:49.676Z,17.36
2023-05-18T11:14:49.672Z,17.27
2023-05-18T11:15:49.672Z,17.36
2023-05-18T11:16:49.747Z,17.36
2023-05-18T11:17:49.739Z,17.36
2023-05-18T11:18:49.858Z,17.36
2023-05-18T11:19:49.713Z,17.36
2023-05-18T11:20:49.682Z,17.36
2023-05-18T11:21:49.665Z,17.36
2023-05-18T11:22:49.682Z,17.56
2023-05-18T11:23:49.665Z,17.36
2023-05-18T11:24:49.676Z,17.27
2023-05-18T11:25:49.664Z,17.66
2023-05-18T11:26:49.673Z,17.27
2023-05-18T11:27:49.662Z,17.46
2023-05-18T11:28:49.886Z,17.46
2023-05-18T11:29:50.649Z,17.56
2023-05-18T11:30:49.669Z,17.46
2023-05-18T11:31:49.695Z,17.47
2023-05-18T11:32:49.728Z,17.56
2023-05-18T11:33:49.667Z,17.56
2023-05-18T11:34:49.685Z,17.46
2023-05-18T11:35:49.709Z,17.46
2023-05-18T11:36:49.673Z,17.36
2023-05-18T11:37:49.663Z,17.56
2023-05-18T11:38:49.668Z,17.56
2023-05-18T11:39:58.527Z,17.56
2023-05-18T11:40:49.676Z,17.56
2023-05-18T11:41:49.661Z,17.56
2023-05-18T11:42:49.671Z,17.46
2023-05-18T11:43:49.661Z,17.56
2023-05-18T11:44:49.666Z,17.46
2023-05-18T11:45:49.658Z,17.56
2023-05-18T11:46:49.663Z,17.56
2023-05-18T11:47:49.727Z,17.56
2023-05-18T11:48:49.758Z,17.47
2023-05-18T11:49:49.662Z,17.46
2023-05-18T11:50:49.663Z,17.66
2023-05-18T11:51:49.742Z,17.56
2023-05-18T11:52:49.666Z,17.46
2023-05-18T11:53:49.655Z,17.46
2023-05-18T11:54:49.669Z,17.46
2023-05-18T11:55:49.654Z,17.46
2023-05-18T11:56:49.662Z,17.46
2023-05-18T11:57:49.660Z,17.46
2023-05-18T11:58:49.667Z,17.76
2023-05-18T11:59:49.657Z,17.66
2023-05-18T12:00:49.662Z,17.56
2023-05-18T12:01:49.689Z,17.56
2023-05-18T12:02:49.914Z,17.46
2023-05-18T12:03:49.722Z,17.66
2023-05-18T12:04:49.686Z,17.66
2023-05-18T12:05:49.651Z,17.56
2023-05-18T12:06:49.657Z,17.66
2023-05-18T12:07:49.673Z,17.76
2023-05-18T12:08:49.657Z,17.66
2023-05-18T12:09:49.666Z,17.76
2023-05-18T12:10:49.667Z,17.76
2023-05-18T12:11:49.649Z,17.76
2023-05-18T12:12:49.652Z,17.76
2023-05-18T12:13:49.646Z,17.76
2023-05-18T12:14:49.649Z,17.95
2023-05-18T12:15:49.654Z,17.76
2023-05-18T12:16:49.708Z,17.76
2023-05-18T12:17:49.793Z,17.76
2023-05-18T12:18:49.693Z,17.76
2023-05-18T12:19:49.659Z,17.66
2023-05-18T12:20:49.656Z,17.76
2023-05-18T12:21:49.653Z,17.66
2023-05-18T12:22:49.659Z,17.76
2023-05-18T12:23:49.690Z,17.66
2023-05-18T12:24:49.640Z,17.76
2023-05-18T12:25:49.650Z,17.76
2023-05-18T12:26:49.645Z,17.76
2023-05-18T12:27:49.654Z,17.76
2023-05-18T12:28:49.641Z,17.76
2023-05-18T12:29:49.651Z,17.76
2023-05-18T12:30:49.652Z,17.76
2023-05-18T12:31:49.652Z,17.66
2023-05-18T12:32:49.691Z,17.66
2023-05-18T12:33:49.657Z,17.76
2023-05-18T12:34:49.642Z,17.76
2023-05-18T12:35:49.647Z,17.66
2023-05-18T12:36:49.647Z,17.66
2023-05-18T12:37:49.648Z,17.66
2023-05-18T12:38:49.643Z,17.57
2023-05-18T12:39:49.675Z,17.76
2023-05-18T12:40:49.656Z,17.66
2023-05-18T12:41:49.647Z,17.66
2023-05-18T12:42:49.644Z,17.76
2023-05-18T12:43:49.652Z,17.66
2023-05-18T12:44:49.638Z,17.46
2023-05-18T12:45:49.653Z,17.66
2023-05-18T12:46:49.700Z,17.46
2023-05-18T12:47:49.685Z,17.66
2023-05-18T12:48:49.639Z,17.46
2023-05-18T12:49:49.650Z,17.57
2023-05-18T12:50:49.638Z,17.46
2023-05-18T12:51:49.651Z,17.47
2023-05-18T12:52:49.644Z,17.47